QRA weather

Rand Airport
Johannesburg, Gauteng, South Africa

Public forecast

Using degrees Celsius for public forecast. Weather courtesy of forecast.io.

METAR (pilot weather report)

Report is more than 6 hours old.

Retrieved 2018/12/14 12:00 UTC (20 hours ago):

FAGM 141200Z 30010KT CAVOK 30/11 Q1027

TAF (pilot weather forecast)

Forecast is more than 12 hours old.

Closest forecast is OR Tambo International Airport, 8.0 nm (14.9 km) NE. Retrieved 2018/12/14 00:00 UTC (1 day ago):

TAF FAOR 142200Z 1500/1606 35010KT 9999 SCT035 TEMPO 1500/1503 -TSRA FEW035CB BECMG 1504/1506 26006KT BECMG 1507/1509 34012KT PROB30 TEMPO 1512/1516 5000 TSRA FEW040CB BECMG 1515/1517 06015KT CAVOK BECMG 1517/1519 35015KT SCT040 PROB40 TEMPO 1519/1522 20015G25KT 5000 TSRA SCT040CB BECMG 1521/1523 09012KT BECMG 1600/1602 CAVOK TX30/1513Z TN16/1603Z